sensor_id;sensor_type;location;lat;lon;timestamp;P1;durP1;ratioP1;P2;durP2;ratioP2
28653;SDS011;24320;56.980;24.336;2022-10-17T00:00:33;15.32;;;6.80;;
28653;SDS011;24320;56.980;24.336;2022-10-17T00:03:00;10.38;;;5.97;;
28653;SDS011;24320;56.980;24.336;2022-10-17T00:05:27;12.13;;;6.88;;
28653;SDS011;24320;56.980;24.336;2022-10-17T00:07:54;12.65;;;5.72;;
28653;SDS011;24320;56.980;24.336;2022-10-17T00:10:21;15.27;;;5.72;;
28653;SDS011;24320;56.980;24.336;2022-10-17T00:12:49;10.25;;;4.53;;
28653;SDS011;24320;56.980;24.336;2022-10-17T00:15:17;8.82;;;4.50;;
28653;SDS011;24320;56.980;24.336;2022-10-17T00:17:45;6.55;;;4.13;;
28653;SDS011;24320;56.980;24.336;2022-10-17T00:20:12;10.30;;;4.95;;
28653;SDS011;24320;56.980;24.336;2022-10-17T00:22:39;9.48;;;4.32;;
28653;SDS011;24320;56.980;24.336;2022-10-17T00:25:07;8.02;;;4.07;;
28653;SDS011;24320;56.980;24.336;2022-10-17T00:27:35;11.57;;;3.88;;
28653;SDS011;24320;56.980;24.336;2022-10-17T00:30:03;11.32;;;4.20;;
28653;SDS011;24320;56.980;24.336;2022-10-17T00:32:31;7.05;;;3.97;;
28653;SDS011;24320;56.980;24.336;2022-10-17T00:34:58;7.28;;;3.53;;
28653;SDS011;24320;56.980;24.336;2022-10-17T00:37:25;5.32;;;2.97;;
28653;SDS011;24320;56.980;24.336;2022-10-17T00:39:52;6.80;;;3.25;;
28653;SDS011;24320;56.980;24.336;2022-10-17T00:42:19;7.43;;;3.15;;
28653;SDS011;24320;56.980;24.336;2022-10-17T00:47:14;7.55;;;3.00;;
28653;SDS011;24320;56.980;24.336;2022-10-17T00:49:44;6.85;;;2.60;;
28653;SDS011;24320;56.980;24.336;2022-10-17T00:52:22;5.53;;;2.53;;
28653;SDS011;24320;56.980;24.336;2022-10-17T00:54:56;9.15;;;2.33;;
28653;SDS011;24320;56.980;24.336;2022-10-17T00:57:27;12.77;;;2.85;;
28653;SDS011;24320;56.980;24.336;2022-10-17T00:59:56;8.18;;;2.40;;
28653;SDS011;24320;56.980;24.336;2022-10-17T01:02:25;7.35;;;2.42;;
28653;SDS011;24320;56.980;24.336;2022-10-17T01:04:53;4.60;;;2.20;;
28653;SDS011;24320;56.980;24.336;2022-10-17T01:07:25;5.88;;;2.15;;
28653;SDS011;24320;56.980;24.336;2022-10-17T01:09:59;3.75;;;1.88;;
28653;SDS011;24320;56.980;24.336;2022-10-17T01:15:11;4.88;;;1.80;;
28653;SDS011;24320;56.980;24.336;2022-10-17T01:18:02;3.65;;;1.85;;
28653;SDS011;24320;56.980;24.336;2022-10-17T01:20:59;4.13;;;1.77;;
28653;SDS011;24320;56.980;24.336;2022-10-17T01:40:08;11.50;;;2.35;;
28653;SDS011;24320;56.980;24.336;2022-10-17T01:43:00;9.00;;;2.47;;
28653;SDS011;24320;56.980;24.336;2022-10-17T01:48:10;10.70;;;2.13;;
28653;SDS011;24320;56.980;24.336;2022-10-17T01:50:44;6.13;;;1.75;;
28653;SDS011;24320;56.980;24.336;2022-10-17T01:53:27;9.80;;;2.22;;
28653;SDS011;24320;56.980;24.336;2022-10-17T01:55:59;8.88;;;2.30;;
28653;SDS011;24320;56.980;24.336;2022-10-17T01:58:29;10.15;;;2.50;;
28653;SDS011;24320;56.980;24.336;2022-10-17T02:01:07;5.40;;;2.25;;
28653;SDS011;24320;56.980;24.336;2022-10-17T02:03:37;6.53;;;1.83;;
28653;SDS011;24320;56.980;24.336;2022-10-17T02:06:06;11.27;;;2.30;;
28653;SDS011;24320;56.980;24.336;2022-10-17T02:08:43;11.68;;;2.45;;
28653;SDS011;24320;56.980;24.336;2022-10-17T02:16:36;7.10;;;2.30;;
28653;SDS011;24320;56.980;24.336;2022-10-17T02:27:47;7.47;;;2.03;;
28653;SDS011;24320;56.980;24.336;2022-10-17T02:33:07;5.25;;;1.73;;
28653;SDS011;24320;56.980;24.336;2022-10-17T02:35:48;10.30;;;2.75;;
28653;SDS011;24320;56.980;24.336;2022-10-17T02:38:20;7.15;;;2.25;;
28653;SDS011;24320;56.980;24.336;2022-10-17T02:40:48;8.38;;;1.92;;
28653;SDS011;24320;56.980;24.336;2022-10-17T02:43:18;7.93;;;1.85;;
28653;SDS011;24320;56.980;24.336;2022-10-17T02:45:45;9.02;;;2.55;;
28653;SDS011;24320;56.980;24.336;2022-10-17T02:51:52;7.93;;;2.33;;
28653;SDS011;24320;56.980;24.336;2022-10-17T02:54:18;10.20;;;2.15;;
28653;SDS011;24320;56.980;24.336;2022-10-17T02:56:50;9.85;;;2.78;;
28653;SDS011;24320;56.980;24.336;2022-10-17T02:59:21;8.68;;;2.53;;
28653;SDS011;24320;56.980;24.336;2022-10-17T03:01:50;6.82;;;2.55;;
28653;SDS011;24320;56.980;24.336;2022-10-17T03:04:17;6.13;;;2.00;;
28653;SDS011;24320;56.980;24.336;2022-10-17T03:06:45;8.60;;;2.33;;
28653;SDS011;24320;56.980;24.336;2022-10-17T03:09:13;14.88;;;2.45;;
28653;SDS011;24320;56.980;24.336;2022-10-17T03:11:41;8.00;;;2.15;;
28653;SDS011;24320;56.980;24.336;2022-10-17T03:14:07;7.22;;;2.00;;
28653;SDS011;24320;56.980;24.336;2022-10-17T03:16:34;9.00;;;2.25;;
28653;SDS011;24320;56.980;24.336;2022-10-17T03:19:01;7.63;;;2.40;;
28653;SDS011;24320;56.980;24.336;2022-10-17T03:21:29;7.13;;;1.80;;
28653;SDS011;24320;56.980;24.336;2022-10-17T03:23:56;8.68;;;2.28;;
28653;SDS011;24320;56.980;24.336;2022-10-17T03:26:22;7.40;;;1.95;;
28653;SDS011;24320;56.980;24.336;2022-10-17T03:28:49;4.78;;;1.77;;
28653;SDS011;24320;56.980;24.336;2022-10-17T03:31:19;6.68;;;2.38;;
28653;SDS011;24320;56.980;24.336;2022-10-17T03:33:47;10.93;;;2.28;;
28653;SDS011;24320;56.980;24.336;2022-10-17T03:36:15;13.18;;;2.47;;
28653;SDS011;24320;56.980;24.336;2022-10-17T03:38:43;8.73;;;2.05;;
28653;SDS011;24320;56.980;24.336;2022-10-17T03:41:10;8.07;;;2.30;;
28653;SDS011;24320;56.980;24.336;2022-10-17T03:43:37;10.85;;;2.28;;
28653;SDS011;24320;56.980;24.336;2022-10-17T03:46:05;7.57;;;2.00;;
28653;SDS011;24320;56.980;24.336;2022-10-17T03:48:32;6.10;;;2.30;;
28653;SDS011;24320;56.980;24.336;2022-10-17T03:53:27;8.60;;;2.00;;
28653;SDS011;24320;56.980;24.336;2022-10-17T03:55:54;14.07;;;2.50;;
28653;SDS011;24320;56.980;24.336;2022-10-17T03:58:22;8.85;;;2.22;;
28653;SDS011;24320;56.980;24.336;2022-10-17T04:00:49;15.10;;;2.33;;
28653;SDS011;24320;56.980;24.336;2022-10-17T04:03:16;12.50;;;2.70;;
28653;SDS011;24320;56.980;24.336;2022-10-17T04:05:43;8.52;;;2.00;;
28653;SDS011;24320;56.980;24.336;2022-10-17T04:08:09;10.52;;;2.38;;
28653;SDS011;24320;56.980;24.336;2022-10-17T04:10:36;7.75;;;2.15;;
28653;SDS011;24320;56.980;24.336;2022-10-17T04:13:03;10.27;;;3.03;;
28653;SDS011;24320;56.980;24.336;2022-10-17T04:15:31;13.60;;;2.65;;
28653;SDS011;24320;56.980;24.336;2022-10-17T04:17:58;13.32;;;2.17;;
28653;SDS011;24320;56.980;24.336;2022-10-17T04:20:25;12.80;;;3.60;;
28653;SDS011;24320;56.980;24.336;2022-10-17T04:22:52;11.15;;;2.63;;
28653;SDS011;24320;56.980;24.336;2022-10-17T04:25:19;7.53;;;2.08;;
28653;SDS011;24320;56.980;24.336;2022-10-17T04:27:46;14.63;;;3.25;;
28653;SDS011;24320;56.980;24.336;2022-10-17T04:30:14;12.05;;;3.15;;
28653;SDS011;24320;56.980;24.336;2022-10-17T04:32:41;12.77;;;2.70;;
28653;SDS011;24320;56.980;24.336;2022-10-17T04:35:08;11.52;;;2.58;;
28653;SDS011;24320;56.980;24.336;2022-10-17T04:37:35;12.57;;;2.40;;
28653;SDS011;24320;56.980;24.336;2022-10-17T04:40:02;7.10;;;2.17;;
28653;SDS011;24320;56.980;24.336;2022-10-17T04:42:30;19.00;;;2.38;;
28653;SDS011;24320;56.980;24.336;2022-10-17T04:44:57;10.73;;;2.15;;
28653;SDS011;24320;56.980;24.336;2022-10-17T04:47:24;9.20;;;2.42;;
28653;SDS011;24320;56.980;24.336;2022-10-17T04:49:51;5.68;;;2.40;;
28653;SDS011;24320;56.980;24.336;2022-10-17T04:52:18;11.48;;;2.08;;
28653;SDS011;24320;56.980;24.336;2022-10-17T04:54:45;13.27;;;2.38;;
28653;SDS011;24320;56.980;24.336;2022-10-17T04:57:12;9.43;;;2.15;;
28653;SDS011;24320;56.980;24.336;2022-10-17T04:59:39;10.65;;;1.85;;
28653;SDS011;24320;56.980;24.336;2022-10-17T05:02:06;10.27;;;2.55;;
28653;SDS011;24320;56.980;24.336;2022-10-17T05:04:33;9.48;;;2.50;;
28653;SDS011;24320;56.980;24.336;2022-10-17T05:07:00;18.77;;;2.38;;
28653;SDS011;24320;56.980;24.336;2022-10-17T05:09:27;13.32;;;2.55;;
28653;SDS011;24320;56.980;24.336;2022-10-17T05:11:54;10.48;;;2.05;;
28653;SDS011;24320;56.980;24.336;2022-10-17T05:14:21;9.90;;;2.65;;
28653;SDS011;24320;56.980;24.336;2022-10-17T05:16:48;9.73;;;2.65;;
28653;SDS011;24320;56.980;24.336;2022-10-17T05:19:15;8.13;;;2.17;;
28653;SDS011;24320;56.980;24.336;2022-10-17T05:21:43;11.30;;;2.70;;
28653;SDS011;24320;56.980;24.336;2022-10-17T05:24:12;15.98;;;3.35;;
28653;SDS011;24320;56.980;24.336;2022-10-17T05:26:39;11.63;;;2.55;;
28653;SDS011;24320;56.980;24.336;2022-10-17T05:29:06;13.95;;;2.45;;
28653;SDS011;24320;56.980;24.336;2022-10-17T05:31:33;7.32;;;2.35;;
28653;SDS011;24320;56.980;24.336;2022-10-17T05:34:01;10.77;;;2.60;;
28653;SDS011;24320;56.980;24.336;2022-10-17T05:36:28;11.13;;;3.05;;
28653;SDS011;24320;56.980;24.336;2022-10-17T05:38:56;9.02;;;2.80;;
28653;SDS011;24320;56.980;24.336;2022-10-17T05:41:22;15.45;;;3.05;;
28653;SDS011;24320;56.980;24.336;2022-10-17T05:43:49;11.35;;;2.78;;
28653;SDS011;24320;56.980;24.336;2022-10-17T05:46:16;15.15;;;2.80;;
28653;SDS011;24320;56.980;24.336;2022-10-17T05:48:43;9.00;;;2.75;;
28653;SDS011;24320;56.980;24.336;2022-10-17T05:51:10;9.48;;;2.08;;
28653;SDS011;24320;56.980;24.336;2022-10-17T05:56:15;14.60;;;2.60;;
28653;SDS011;24320;56.980;24.336;2022-10-17T05:58:42;13.75;;;2.50;;
28653;SDS011;24320;56.980;24.336;2022-10-17T06:01:15;9.32;;;2.35;;
28653;SDS011;24320;56.980;24.336;2022-10-17T06:03:42;11.80;;;2.03;;
28653;SDS011;24320;56.980;24.336;2022-10-17T06:06:10;8.88;;;1.90;;
28653;SDS011;24320;56.980;24.336;2022-10-17T06:08:38;12.75;;;1.80;;
28653;SDS011;24320;56.980;24.336;2022-10-17T06:11:06;13.68;;;2.85;;
28653;SDS011;24320;56.980;24.336;2022-10-17T06:13:36;7.15;;;2.33;;
28653;SDS011;24320;56.980;24.336;2022-10-17T06:16:03;11.40;;;2.80;;
28653;SDS011;24320;56.980;24.336;2022-10-17T06:18:31;13.10;;;2.25;;
28653;SDS011;24320;56.980;24.336;2022-10-17T06:21:02;10.82;;;2.38;;
28653;SDS011;24320;56.980;24.336;2022-10-17T06:23:39;6.75;;;1.73;;
28653;SDS011;24320;56.980;24.336;2022-10-17T06:26:07;10.65;;;1.90;;
28653;SDS011;24320;56.980;24.336;2022-10-17T06:28:34;7.35;;;1.92;;
28653;SDS011;24320;56.980;24.336;2022-10-17T06:31:09;9.57;;;2.35;;
28653;SDS011;24320;56.980;24.336;2022-10-17T06:33:38;7.55;;;2.20;;
28653;SDS011;24320;56.980;24.336;2022-10-17T06:36:05;11.40;;;1.77;;
28653;SDS011;24320;56.980;24.336;2022-10-17T06:38:33;12.55;;;2.00;;
28653;SDS011;24320;56.980;24.336;2022-10-17T06:41:10;8.18;;;1.95;;
28653;SDS011;24320;56.980;24.336;2022-10-17T06:43:43;8.38;;;2.03;;
28653;SDS011;24320;56.980;24.336;2022-10-17T06:46:12;5.55;;;2.03;;
28653;SDS011;24320;56.980;24.336;2022-10-17T06:48:40;8.20;;;2.00;;
28653;SDS011;24320;56.980;24.336;2022-10-17T06:51:07;7.88;;;1.85;;
28653;SDS011;24320;56.980;24.336;2022-10-17T06:53:38;6.10;;;2.08;;
28653;SDS011;24320;56.980;24.336;2022-10-17T06:56:20;9.65;;;2.70;;
28653;SDS011;24320;56.980;24.336;2022-10-17T06:58:49;7.43;;;2.47;;
28653;SDS011;24320;56.980;24.336;2022-10-17T07:01:18;12.93;;;3.05;;
28653;SDS011;24320;56.980;24.336;2022-10-17T07:03:46;8.13;;;2.42;;
28653;SDS011;24320;56.980;24.336;2022-10-17T07:06:15;8.10;;;2.25;;
28653;SDS011;24320;56.980;24.336;2022-10-17T07:08:43;7.30;;;1.70;;
28653;SDS011;24320;56.980;24.336;2022-10-17T07:11:11;9.38;;;2.20;;
28653;SDS011;24320;56.980;24.336;2022-10-17T07:13:41;11.80;;;1.88;;
28653;SDS011;24320;56.980;24.336;2022-10-17T07:16:09;10.00;;;2.08;;
28653;SDS011;24320;56.980;24.336;2022-10-17T07:18:36;8.18;;;1.60;;
28653;SDS011;24320;56.980;24.336;2022-10-17T07:21:04;8.10;;;1.98;;
28653;SDS011;24320;56.980;24.336;2022-10-17T07:23:31;11.38;;;1.85;;
28653;SDS011;24320;56.980;24.336;2022-10-17T07:26:02;10.10;;;1.80;;
28653;SDS011;24320;56.980;24.336;2022-10-17T07:28:33;5.65;;;1.70;;
28653;SDS011;24320;56.980;24.336;2022-10-17T07:31:10;8.05;;;1.90;;
28653;SDS011;24320;56.980;24.336;2022-10-17T07:33:40;9.98;;;2.00;;
28653;SDS011;24320;56.980;24.336;2022-10-17T07:36:08;10.95;;;1.95;;
28653;SDS011;24320;56.980;24.336;2022-10-17T07:38:35;8.38;;;2.13;;
28653;SDS011;24320;56.980;24.336;2022-10-17T07:41:03;10.43;;;1.90;;
28653;SDS011;24320;56.980;24.336;2022-10-17T07:43:32;7.85;;;2.33;;
28653;SDS011;24320;56.980;24.336;2022-10-17T07:46:00;10.88;;;2.05;;
28653;SDS011;24320;56.980;24.336;2022-10-17T07:48:27;10.45;;;1.98;;
28653;SDS011;24320;56.980;24.336;2022-10-17T07:50:55;12.50;;;2.00;;
28653;SDS011;24320;56.980;24.336;2022-10-17T07:53:22;16.70;;;2.10;;
28653;SDS011;24320;56.980;24.336;2022-10-17T07:55:49;11.70;;;1.45;;
28653;SDS011;24320;56.980;24.336;2022-10-17T07:58:16;9.30;;;1.50;;
28653;SDS011;24320;56.980;24.336;2022-10-17T08:00:43;9.90;;;1.60;;
28653;SDS011;24320;56.980;24.336;2022-10-17T08:03:13;8.48;;;1.63;;
28653;SDS011;24320;56.980;24.336;2022-10-17T08:05:40;7.05;;;2.00;;
28653;SDS011;24320;56.980;24.336;2022-10-17T08:08:15;14.98;;;1.95;;
28653;SDS011;24320;56.980;24.336;2022-10-17T08:10:41;12.07;;;2.20;;
28653;SDS011;24320;56.980;24.336;2022-10-17T08:13:08;6.90;;;1.67;;
28653;SDS011;24320;56.980;24.336;2022-10-17T08:15:36;11.20;;;2.40;;
28653;SDS011;24320;56.980;24.336;2022-10-17T08:18:04;13.85;;;2.47;;
28653;SDS011;24320;56.980;24.336;2022-10-17T08:20:31;10.55;;;1.92;;
28653;SDS011;24320;56.980;24.336;2022-10-17T08:23:04;8.02;;;1.90;;
28653;SDS011;24320;56.980;24.336;2022-10-17T08:25:31;7.70;;;1.83;;
28653;SDS011;24320;56.980;24.336;2022-10-17T08:27:58;15.60;;;2.20;;
28653;SDS011;24320;56.980;24.336;2022-10-17T08:30:25;12.43;;;1.95;;
28653;SDS011;24320;56.980;24.336;2022-10-17T08:32:52;15.98;;;2.30;;
28653;SDS011;24320;56.980;24.336;2022-10-17T08:35:21;7.82;;;2.08;;
28653;SDS011;24320;56.980;24.336;2022-10-17T08:37:49;9.93;;;1.77;;
28653;SDS011;24320;56.980;24.336;2022-10-17T08:40:17;11.27;;;1.92;;
28653;SDS011;24320;56.980;24.336;2022-10-17T08:45:59;12.65;;;2.90;;
28653;SDS011;24320;56.980;24.336;2022-10-17T08:48:29;12.60;;;3.15;;
28653;SDS011;24320;56.980;24.336;2022-10-17T08:55:59;10.05;;;1.90;;
28653;SDS011;24320;56.980;24.336;2022-10-17T08:58:45;12.23;;;1.95;;
28653;SDS011;24320;56.980;24.336;2022-10-17T09:18:02;9.93;;;1.88;;
28653;SDS011;24320;56.980;24.336;2022-10-17T09:23:16;8.65;;;1.67;;
28653;SDS011;24320;56.980;24.336;2022-10-17T09:25:48;10.10;;;2.33;;
28653;SDS011;24320;56.980;24.336;2022-10-17T09:28:34;5.95;;;1.50;;
28653;SDS011;24320;56.980;24.336;2022-10-17T09:31:19;7.38;;;1.73;;
28653;SDS011;24320;56.980;24.336;2022-10-17T09:33:48;6.43;;;1.65;;
28653;SDS011;24320;56.980;24.336;2022-10-17T09:36:33;6.45;;;2.10;;
28653;SDS011;24320;56.980;24.336;2022-10-17T09:39:10;10.63;;;2.05;;
28653;SDS011;24320;56.980;24.336;2022-10-17T09:41:43;18.45;;;1.85;;
28653;SDS011;24320;56.980;24.336;2022-10-17T09:44:28;10.70;;;1.95;;
28653;SDS011;24320;56.980;24.336;2022-10-17T09:47:25;12.13;;;2.30;;
28653;SDS011;24320;56.980;24.336;2022-10-17T09:49:54;9.32;;;2.70;;
28653;SDS011;24320;56.980;24.336;2022-10-17T09:52:25;11.00;;;2.63;;
28653;SDS011;24320;56.980;24.336;2022-10-17T09:57:26;4.85;;;1.60;;
28653;SDS011;24320;56.980;24.336;2022-10-17T10:00:00;7.68;;;1.92;;
28653;SDS011;24320;56.980;24.336;2022-10-17T10:02:30;15.80;;;2.22;;
28653;SDS011;24320;56.980;24.336;2022-10-17T10:05:05;11.35;;;1.90;;
28653;SDS011;24320;56.980;24.336;2022-10-17T10:07:42;10.80;;;2.33;;
28653;SDS011;24320;56.980;24.336;2022-10-17T10:10:26;7.88;;;2.00;;
28653;SDS011;24320;56.980;24.336;2022-10-17T10:13:27;8.57;;;1.85;;
28653;SDS011;24320;56.980;24.336;2022-10-17T10:15:50;7.10;;;1.58;;
28653;SDS011;24320;56.980;24.336;2022-10-17T10:23:43;9.20;;;2.05;;
28653;SDS011;24320;56.980;24.336;2022-10-17T10:29:03;10.40;;;2.05;;
28653;SDS011;24320;56.980;24.336;2022-10-17T10:31:44;7.70;;;1.42;;
28653;SDS011;24320;56.980;24.336;2022-10-17T10:34:23;10.10;;;2.00;;
28653;SDS011;24320;56.980;24.336;2022-10-17T10:36:58;10.30;;;2.20;;
28653;SDS011;24320;56.980;24.336;2022-10-17T10:41:54;8.73;;;1.80;;
28653;SDS011;24320;56.980;24.336;2022-10-17T10:44:23;8.65;;;1.58;;
28653;SDS011;24320;56.980;24.336;2022-10-17T10:47:04;13.55;;;1.63;;
28653;SDS011;24320;56.980;24.336;2022-10-17T10:49:41;7.78;;;1.63;;
28653;SDS011;24320;56.980;24.336;2022-10-17T10:52:14;7.45;;;1.67;;
28653;SDS011;24320;56.980;24.336;2022-10-17T10:54:54;9.90;;;1.77;;
28653;SDS011;24320;56.980;24.336;2022-10-17T10:57:29;12.63;;;1.73;;
28653;SDS011;24320;56.980;24.336;2022-10-17T11:02:35;5.30;;;1.27;;
28653;SDS011;24320;56.980;24.336;2022-10-17T11:05:21;5.07;;;1.38;;
28653;SDS011;24320;56.980;24.336;2022-10-17T11:07:59;8.65;;;1.50;;
28653;SDS011;24320;56.980;24.336;2022-10-17T11:11:13;3.95;;;1.33;;
28653;SDS011;24320;56.980;24.336;2022-10-17T11:14:02;9.55;;;1.42;;
28653;SDS011;24320;56.980;24.336;2022-10-17T11:19:30;6.65;;;1.52;;
28653;SDS011;24320;56.980;24.336;2022-10-17T11:25:05;8.40;;;1.42;;
28653;SDS011;24320;56.980;24.336;2022-10-17T11:27:44;6.40;;;1.65;;
28653;SDS011;24320;56.980;24.336;2022-10-17T11:30:12;4.22;;;1.23;;
28653;SDS011;24320;56.980;24.336;2022-10-17T11:32:47;7.18;;;1.50;;
28653;SDS011;24320;56.980;24.336;2022-10-17T11:35:23;7.00;;;1.73;;
28653;SDS011;24320;56.980;24.336;2022-10-17T11:38:04;9.23;;;1.83;;
28653;SDS011;24320;56.980;24.336;2022-10-17T11:41:12;5.05;;;1.05;;
28653;SDS011;24320;56.980;24.336;2022-10-17T11:43:48;5.40;;;1.20;;
28653;SDS011;24320;56.980;24.336;2022-10-17T11:46:23;7.25;;;1.73;;
28653;SDS011;24320;56.980;24.336;2022-10-17T11:51:45;10.15;;;1.60;;
28653;SDS011;24320;56.980;24.336;2022-10-17T11:54:37;6.35;;;1.48;;
28653;SDS011;24320;56.980;24.336;2022-10-17T12:07:57;9.40;;;1.50;;
28653;SDS011;24320;56.980;24.336;2022-10-17T12:15:54;6.72;;;1.63;;
28653;SDS011;24320;56.980;24.336;2022-10-17T12:18:25;4.78;;;1.10;;
28653;SDS011;24320;56.980;24.336;2022-10-17T12:20:55;8.30;;;2.15;;
28653;SDS011;24320;56.980;24.336;2022-10-17T12:23:26;15.27;;;1.77;;
28653;SDS011;24320;56.980;24.336;2022-10-17T12:25:58;6.63;;;1.08;;
28653;SDS011;24320;56.980;24.336;2022-10-17T12:28:31;12.48;;;1.70;;
28653;SDS011;24320;56.980;24.336;2022-10-17T12:38:48;7.25;;;1.35;;
28653;SDS011;24320;56.980;24.336;2022-10-17T13:00:41;2.75;;;1.30;;
28653;SDS011;24320;56.980;24.336;2022-10-17T13:03:39;7.47;;;1.50;;
28653;SDS011;24320;56.980;24.336;2022-10-17T13:06:11;9.38;;;1.70;;
28653;SDS011;24320;56.980;24.336;2022-10-17T13:08:48;10.00;;;2.65;;
28653;SDS011;24320;56.980;24.336;2022-10-17T13:11:29;8.32;;;1.75;;
28653;SDS011;24320;56.980;24.336;2022-10-17T13:13:59;5.05;;;1.50;;
28653;SDS011;24320;56.980;24.336;2022-10-17T13:16:30;5.55;;;1.50;;
28653;SDS011;24320;56.980;24.336;2022-10-17T13:19:15;7.45;;;1.38;;
28653;SDS011;24320;56.980;24.336;2022-10-17T13:24:28;8.73;;;1.45;;
28653;SDS011;24320;56.980;24.336;2022-10-17T13:26:59;5.95;;;1.48;;
28653;SDS011;24320;56.980;24.336;2022-10-17T13:29:27;4.22;;;1.17;;
28653;SDS011;24320;56.980;24.336;2022-10-17T13:31:59;4.05;;;1.48;;
28653;SDS011;24320;56.980;24.336;2022-10-17T13:34:29;14.32;;;1.90;;
28653;SDS011;24320;56.980;24.336;2022-10-17T13:36:59;11.63;;;1.85;;
28653;SDS011;24320;56.980;24.336;2022-10-17T13:39:32;10.05;;;1.63;;
28653;SDS011;24320;56.980;24.336;2022-10-17T13:42:24;7.45;;;1.70;;
28653;SDS011;24320;56.980;24.336;2022-10-17T13:44:55;8.15;;;1.20;;
28653;SDS011;24320;56.980;24.336;2022-10-17T13:47:24;6.63;;;2.03;;
28653;SDS011;24320;56.980;24.336;2022-10-17T13:49:53;8.77;;;1.83;;
28653;SDS011;24320;56.980;24.336;2022-10-17T13:52:24;4.82;;;1.33;;
28653;SDS011;24320;56.980;24.336;2022-10-17T13:55:05;4.45;;;1.77;;
28653;SDS011;24320;56.980;24.336;2022-10-17T13:57:42;5.60;;;1.30;;
28653;SDS011;24320;56.980;24.336;2022-10-17T14:00:14;8.90;;;1.75;;
28653;SDS011;24320;56.980;24.336;2022-10-17T14:02:45;8.20;;;1.60;;
28653;SDS011;24320;56.980;24.336;2022-10-17T14:05:17;9.68;;;2.03;;
28653;SDS011;24320;56.980;24.336;2022-10-17T14:07:59;8.38;;;1.85;;
28653;SDS011;24320;56.980;24.336;2022-10-17T14:10:40;7.82;;;1.80;;
28653;SDS011;24320;56.980;24.336;2022-10-17T14:13:21;12.35;;;2.20;;
28653;SDS011;24320;56.980;24.336;2022-10-17T14:15:51;7.00;;;1.60;;
28653;SDS011;24320;56.980;24.336;2022-10-17T14:18:26;17.40;;;3.63;;
28653;SDS011;24320;56.980;24.336;2022-10-17T14:21:01;11.43;;;2.88;;
28653;SDS011;24320;56.980;24.336;2022-10-17T14:23:50;12.77;;;3.63;;
28653;SDS011;24320;56.980;24.336;2022-10-17T14:26:45;9.57;;;2.72;;
28653;SDS011;24320;56.980;24.336;2022-10-17T14:32:16;17.00;;;5.05;;
28653;SDS011;24320;56.980;24.336;2022-10-17T14:34:44;33.80;;;9.88;;
28653;SDS011;24320;56.980;24.336;2022-10-17T14:37:21;34.65;;;9.32;;
28653;SDS011;24320;56.980;24.336;2022-10-17T14:39:58;36.40;;;10.88;;
28653;SDS011;24320;56.980;24.336;2022-10-17T14:42:26;32.38;;;9.73;;
28653;SDS011;24320;56.980;24.336;2022-10-17T14:44:53;25.00;;;7.07;;
28653;SDS011;24320;56.980;24.336;2022-10-17T14:47:24;25.52;;;6.72;;
28653;SDS011;24320;56.980;24.336;2022-10-17T14:52:35;27.13;;;5.82;;
28653;SDS011;24320;56.980;24.336;2022-10-17T14:55:19;15.77;;;5.35;;
28653;SDS011;24320;56.980;24.336;2022-10-17T14:57:50;18.75;;;5.43;;
28653;SDS011;24320;56.980;24.336;2022-10-17T15:00:18;14.05;;;5.30;;
28653;SDS011;24320;56.980;24.336;2022-10-17T15:02:47;10.50;;;5.28;;
28653;SDS011;24320;56.980;24.336;2022-10-17T15:05:15;12.25;;;5.68;;
28653;SDS011;24320;56.980;24.336;2022-10-17T15:07:42;18.73;;;6.18;;
28653;SDS011;24320;56.980;24.336;2022-10-17T15:10:27;20.05;;;8.57;;
28653;SDS011;24320;56.980;24.336;2022-10-17T15:13:02;21.92;;;8.68;;
28653;SDS011;24320;56.980;24.336;2022-10-17T15:15:49;25.23;;;8.88;;
28653;SDS011;24320;56.980;24.336;2022-10-17T15:18:17;30.00;;;9.55;;
28653;SDS011;24320;56.980;24.336;2022-10-17T15:20:44;26.52;;;9.57;;
28653;SDS011;24320;56.980;24.336;2022-10-17T15:23:11;19.98;;;8.55;;
28653;SDS011;24320;56.980;24.336;2022-10-17T15:25:38;35.47;;;10.77;;
28653;SDS011;24320;56.980;24.336;2022-10-17T15:28:05;34.42;;;12.30;;
28653;SDS011;24320;56.980;24.336;2022-10-17T15:30:34;36.88;;;13.60;;
28653;SDS011;24320;56.980;24.336;2022-10-17T15:33:01;51.92;;;15.70;;
28653;SDS011;24320;56.980;24.336;2022-10-17T15:35:28;50.45;;;17.88;;
28653;SDS011;24320;56.980;24.336;2022-10-17T15:37:56;77.88;;;24.52;;
28653;SDS011;24320;56.980;24.336;2022-10-17T15:40:24;49.83;;;19.20;;
28653;SDS011;24320;56.980;24.336;2022-10-17T15:42:56;40.08;;;13.65;;
28653;SDS011;24320;56.980;24.336;2022-10-17T15:45:23;43.53;;;15.35;;
28653;SDS011;24320;56.980;24.336;2022-10-17T15:47:54;28.98;;;10.98;;
28653;SDS011;24320;56.980;24.336;2022-10-17T15:50:35;27.88;;;10.98;;
28653;SDS011;24320;56.980;24.336;2022-10-17T15:53:03;27.58;;;8.15;;
28653;SDS011;24320;56.980;24.336;2022-10-17T15:55:31;26.55;;;9.70;;
28653;SDS011;24320;56.980;24.336;2022-10-17T15:57:58;26.58;;;9.18;;
28653;SDS011;24320;56.980;24.336;2022-10-17T16:00:25;26.23;;;9.90;;
28653;SDS011;24320;56.980;24.336;2022-10-17T16:02:52;35.70;;;10.52;;
28653;SDS011;24320;56.980;24.336;2022-10-17T16:05:20;26.88;;;9.57;;
28653;SDS011;24320;56.980;24.336;2022-10-17T16:07:48;28.20;;;10.55;;
28653;SDS011;24320;56.980;24.336;2022-10-17T16:10:17;32.38;;;11.63;;
28653;SDS011;24320;56.980;24.336;2022-10-17T16:12:44;37.35;;;11.35;;
28653;SDS011;24320;56.980;24.336;2022-10-17T16:15:13;29.00;;;12.02;;
28653;SDS011;24320;56.980;24.336;2022-10-17T16:17:48;37.17;;;12.50;;
28653;SDS011;24320;56.980;24.336;2022-10-17T16:20:19;30.98;;;10.75;;
28653;SDS011;24320;56.980;24.336;2022-10-17T16:22:47;26.33;;;10.93;;
28653;SDS011;24320;56.980;24.336;2022-10-17T16:25:16;29.48;;;10.30;;
28653;SDS011;24320;56.980;24.336;2022-10-17T16:27:48;29.83;;;9.10;;
28653;SDS011;24320;56.980;24.336;2022-10-17T16:30:17;32.08;;;10.45;;
28653;SDS011;24320;56.980;24.336;2022-10-17T16:32:45;39.50;;;12.15;;
28653;SDS011;24320;56.980;24.336;2022-10-17T16:35:16;42.60;;;12.77;;
28653;SDS011;24320;56.980;24.336;2022-10-17T16:37:45;32.75;;;10.48;;
28653;SDS011;24320;56.980;24.336;2022-10-17T16:40:13;26.52;;;9.60;;
28653;SDS011;24320;56.980;24.336;2022-10-17T16:42:40;35.08;;;12.60;;
28653;SDS011;24320;56.980;24.336;2022-10-17T16:45:07;28.50;;;9.48;;
28653;SDS011;24320;56.980;24.336;2022-10-17T16:47:36;30.75;;;11.55;;
28653;SDS011;24320;56.980;24.336;2022-10-17T16:50:03;27.90;;;9.00;;
28653;SDS011;24320;56.980;24.336;2022-10-17T16:52:30;22.13;;;8.55;;
28653;SDS011;24320;56.980;24.336;2022-10-17T16:54:57;33.03;;;8.73;;
28653;SDS011;24320;56.980;24.336;2022-10-17T16:57:24;25.63;;;8.27;;
28653;SDS011;24320;56.980;24.336;2022-10-17T16:59:51;30.00;;;9.68;;
28653;SDS011;24320;56.980;24.336;2022-10-17T17:02:18;35.50;;;11.55;;
28653;SDS011;24320;56.980;24.336;2022-10-17T17:04:46;44.88;;;16.30;;
28653;SDS011;24320;56.980;24.336;2022-10-17T17:07:13;72.18;;;24.88;;
28653;SDS011;24320;56.980;24.336;2022-10-17T17:09:42;88.70;;;29.48;;
28653;SDS011;24320;56.980;24.336;2022-10-17T17:12:09;68.05;;;21.80;;
28653;SDS011;24320;56.980;24.336;2022-10-17T17:14:37;49.08;;;16.52;;
28653;SDS011;24320;56.980;24.336;2022-10-17T17:17:04;30.52;;;9.93;;
28653;SDS011;24320;56.980;24.336;2022-10-17T17:19:37;26.50;;;8.65;;
28653;SDS011;24320;56.980;24.336;2022-10-17T17:22:04;25.38;;;8.10;;